createdAt,value
2023-05-18T00:00:37.314Z,61.30
2023-05-18T00:02:41.780Z,60.70
2023-05-18T00:04:46.462Z,60.12
2023-05-18T00:06:57.368Z,60.60
2023-05-18T00:09:02.253Z,60.35
2023-05-18T00:11:07.693Z,60.22
2023-05-18T00:13:12.201Z,59.87
2023-05-18T00:15:16.543Z,59.38
2023-05-18T00:17:22.839Z,59.47
2023-05-18T00:19:27.129Z,59.01
2023-05-18T00:21:33.788Z,59.01
2023-05-18T00:23:39.857Z,59.18
2023-05-18T00:25:43.914Z,59.64
2023-05-18T00:27:49.925Z,59.32
2023-05-18T00:29:56.548Z,58.64
2023-05-18T00:32:01.192Z,59.42
2023-05-18T00:34:07.448Z,59.13
2023-05-18T00:36:12.465Z,59.33
2023-05-18T00:38:16.786Z,59.49
2023-05-18T00:40:21.556Z,59.66
2023-05-18T00:42:26.980Z,59.84
2023-05-18T00:44:31.783Z,59.31
2023-05-18T00:46:35.856Z,59.52
2023-05-18T00:48:40.396Z,59.30
2023-05-18T00:50:46.285Z,59.87
2023-05-18T00:52:51.916Z,59.57
2023-05-18T00:54:58.727Z,58.98
2023-05-18T00:57:03.831Z,59.76
2023-05-18T00:59:09.557Z,59.46
2023-05-18T01:01:14.440Z,59.94
2023-05-18T01:03:21.632Z,60.48
2023-05-18T01:05:25.976Z,59.86
2023-05-18T01:07:34.009Z,60.17
2023-05-18T01:09:38.849Z,60.04
2023-05-18T01:11:51.334Z,60.52
2023-05-18T01:14:04.359Z,60.10
2023-05-18T01:16:14.502Z,60.06
2023-05-18T01:18:25.374Z,60.22
2023-05-18T01:20:38.290Z,60.58
2023-05-18T01:23:10.437Z,60.70
2023-05-18T01:25:24.084Z,60.88
2023-05-18T01:27:29.984Z,61.19
2023-05-18T01:29:34.867Z,61.35
2023-05-18T01:31:40.365Z,61.18
2023-05-18T01:33:45.250Z,61.00
2023-05-18T01:35:49.931Z,61.05
2023-05-18T01:37:55.800Z,61.71
2023-05-18T01:39:59.942Z,62.10
2023-05-18T01:42:09.248Z,61.69
2023-05-18T01:44:20.851Z,61.74
2023-05-18T01:46:34.405Z,61.83
2023-05-18T01:48:41.166Z,62.26
2023-05-18T01:50:49.918Z,62.31
2023-05-18T01:52:58.730Z,62.39
2023-05-18T01:55:05.970Z,62.93
2023-05-18T01:57:12.516Z,62.73
2023-05-18T01:59:19.874Z,63.05
2023-05-18T02:01:25.198Z,62.95
2023-05-18T02:03:30.144Z,63.00
2023-05-18T02:05:35.117Z,63.16
2023-05-18T02:07:39.394Z,62.71
2023-05-18T02:09:44.602Z,63.60
2023-05-18T02:11:48.966Z,63.39
2023-05-18T02:13:53.234Z,63.80
2023-05-18T02:15:59.688Z,63.59
2023-05-18T02:18:04.963Z,63.94
2023-05-18T02:20:11.349Z,63.94
2023-05-18T02:22:15.892Z,64.58
2023-05-18T02:24:20.196Z,64.73
2023-05-18T02:26:24.861Z,65.11
2023-05-18T02:28:30.455Z,65.63
2023-05-18T02:30:35.296Z,65.51
2023-05-18T02:32:43.364Z,65.92
2023-05-18T02:34:50.664Z,66.34
2023-05-18T02:36:58.287Z,66.69
2023-05-18T02:39:03.393Z,66.79
2023-05-18T02:41:08.388Z,67.07
2023-05-18T02:43:13.050Z,67.06
2023-05-18T02:45:17.457Z,67.19
2023-05-18T02:47:22.742Z,67.47
2023-05-18T02:49:29.119Z,68.09
2023-05-18T02:51:33.757Z,68.94
2023-05-18T02:53:39.018Z,68.78
2023-05-18T02:55:49.506Z,68.30
2023-05-18T02:57:59.117Z,69.41
2023-05-18T03:00:24.242Z,69.25
2023-05-18T03:02:29.133Z,69.07
2023-05-18T03:04:34.806Z,69.30
2023-05-18T03:06:39.392Z,69.30
2023-05-18T03:08:43.916Z,70.03
2023-05-18T03:10:50.615Z,70.46
2023-05-18T03:12:55.537Z,70.96
2023-05-18T03:15:00.072Z,70.57
2023-05-18T03:17:06.348Z,70.14
2023-05-18T03:19:14.542Z,71.18
2023-05-18T03:21:20.659Z,71.29
2023-05-18T03:23:27.308Z,72.23
2023-05-18T03:25:33.330Z,71.88
2023-05-18T03:27:39.112Z,72.14
2023-05-18T03:29:43.797Z,71.99
2023-05-18T03:31:48.593Z,72.34
2023-05-18T03:33:53.330Z,72.91
2023-05-18T03:35:58.153Z,72.65
2023-05-18T03:38:04.442Z,72.87
2023-05-18T03:40:14.337Z,72.93
2023-05-18T03:42:19.718Z,72.93
2023-05-18T03:44:24.997Z,72.98
2023-05-18T03:46:29.579Z,72.68
2023-05-18T03:48:34.570Z,72.81
2023-05-18T03:50:38.955Z,73.49
2023-05-18T03:52:45.730Z,72.89
2023-05-18T03:54:52.008Z,73.26
2023-05-18T03:56:56.658Z,72.73
2023-05-18T03:59:00.788Z,73.48
2023-05-18T04:01:06.343Z,73.30
2023-05-18T04:03:13.159Z,73.89
2023-05-18T04:05:18.140Z,74.02
2023-05-18T04:07:24.515Z,73.80
2023-05-18T04:09:30.969Z,74.17
2023-05-18T04:11:36.842Z,74.15
2023-05-18T04:13:42.405Z,74.85
2023-05-18T04:15:47.845Z,75.20
2023-05-18T04:17:54.171Z,74.75
2023-05-18T04:19:59.061Z,75.39
2023-05-18T04:22:05.263Z,75.12
2023-05-18T04:24:14.777Z,74.77
2023-05-18T04:26:20.294Z,75.88
2023-05-18T04:28:25.838Z,75.50
2023-05-18T04:30:30.436Z,75.37
2023-05-18T04:32:36.378Z,75.40
2023-05-18T04:34:41.129Z,75.90
2023-05-18T04:36:45.297Z,75.34
2023-05-18T04:38:51.069Z,74.84
2023-05-18T04:40:57.212Z,75.07
2023-05-18T04:43:00.962Z,75.39
2023-05-18T04:45:13.058Z,74.99
2023-05-18T04:47:16.853Z,75.43
2023-05-18T04:49:22.471Z,75.08
2023-05-18T04:51:26.392Z,74.95
2023-05-18T04:53:29.895Z,74.43
2023-05-18T04:55:33.862Z,74.63
2023-05-18T04:57:45.167Z,74.43
2023-05-18T04:59:49.554Z,74.47
2023-05-18T05:01:54.850Z,74.51
2023-05-18T05:03:59.878Z,74.27
2023-05-18T05:06:03.547Z,74.39
2023-05-18T05:08:07.427Z,74.94
2023-05-18T05:10:11.564Z,74.63
2023-05-18T05:12:15.126Z,75.24
2023-05-18T05:14:18.681Z,75.53
2023-05-18T05:16:22.302Z,74.73
2023-05-18T05:18:27.924Z,74.80
2023-05-18T05:20:31.179Z,74.99
2023-05-18T05:22:34.721Z,75.32
2023-05-18T05:24:39.772Z,74.77
2023-05-18T05:26:43.301Z,74.96
2023-05-18T05:28:47.046Z,75.20
2023-05-18T05:30:50.669Z,74.89
2023-05-18T05:32:54.606Z,75.40
2023-05-18T05:34:59.748Z,74.93
2023-05-18T05:37:03.488Z,74.64
2023-05-18T05:39:07.200Z,75.19
2023-05-18T05:41:10.947Z,74.33
2023-05-18T05:43:15.549Z,74.16
2023-05-18T05:45:19.669Z,74.23
2023-05-18T05:47:26.997Z,74.12
2023-05-18T05:49:30.796Z,74.19
2023-05-18T05:51:36.291Z,73.95
2023-05-18T05:53:39.810Z,73.62
2023-05-18T05:55:43.556Z,74.10
2023-05-18T05:57:49.939Z,73.79
2023-05-18T05:59:53.910Z,73.05
2023-05-18T06:01:57.425Z,72.80
2023-05-18T06:04:01.314Z,73.23
2023-05-18T06:06:06.241Z,72.82
2023-05-18T06:08:11.273Z,72.89
2023-05-18T06:10:14.896Z,71.92
2023-05-18T06:12:18.662Z,71.65
2023-05-18T06:14:22.541Z,70.99
2023-05-18T06:16:26.636Z,70.53
2023-05-18T06:18:30.511Z,69.92
2023-05-18T06:20:38.288Z,69.63
2023-05-18T06:22:44.006Z,69.89
2023-05-18T06:25:00.981Z,68.86
2023-05-18T06:27:26.427Z,68.45
2023-05-18T06:29:54.430Z,67.96
2023-05-18T06:32:14.782Z,67.77
2023-05-18T06:34:20.395Z,68.75
2023-05-18T06:36:24.749Z,68.45
2023-05-18T06:38:28.935Z,68.30
2023-05-18T06:40:34.061Z,68.68
2023-05-18T06:42:38.083Z,68.81
2023-05-18T06:45:03.406Z,69.24
2023-05-18T06:47:34.439Z,68.75
2023-05-18T06:49:38.643Z,68.82
2023-05-18T06:51:44.676Z,69.56
2023-05-18T06:53:48.579Z,68.80
2023-05-18T06:55:54.273Z,69.00
2023-05-18T06:57:58.500Z,69.28
2023-05-18T07:00:02.422Z,69.08
2023-05-18T07:02:08.744Z,69.73
2023-05-18T07:04:12.904Z,69.70
2023-05-18T07:06:16.512Z,69.60
2023-05-18T07:08:20.431Z,69.33
2023-05-18T07:10:24.518Z,69.17
2023-05-18T07:12:30.023Z,69.08
2023-05-18T07:14:34.902Z,69.49
2023-05-18T07:16:39.615Z,69.40
2023-05-18T07:18:43.794Z,69.51
2023-05-18T07:20:47.850Z,69.26
2023-05-18T07:22:51.681Z,69.63
2023-05-18T07:24:55.263Z,69.59
2023-05-18T07:27:00.780Z,69.56
2023-05-18T07:29:07.438Z,69.18
2023-05-18T07:31:10.873Z,69.41
2023-05-18T07:33:16.836Z,69.15
2023-05-18T07:35:24.714Z,69.07
2023-05-18T07:37:31.375Z,69.55
2023-05-18T07:39:36.312Z,69.12
2023-05-18T07:41:42.684Z,68.72
2023-05-18T07:43:47.026Z,69.04
2023-05-18T07:45:54.131Z,68.61
2023-05-18T07:48:01.510Z,68.35
2023-05-18T07:50:08.953Z,68.10
2023-05-18T07:52:13.161Z,68.47
2023-05-18T07:54:19.828Z,68.01
2023-05-18T07:56:24.398Z,68.14
2023-05-18T07:58:28.087Z,68.03
2023-05-18T08:00:32.546Z,67.77
2023-05-18T08:02:40.111Z,67.54
2023-05-18T08:04:44.486Z,66.80
2023-05-18T08:06:48.536Z,67.41
2023-05-18T08:08:53.966Z,66.94
2023-05-18T08:10:58.924Z,67.27
2023-05-18T08:13:04.345Z,67.26
2023-05-18T08:15:10.334Z,66.74
2023-05-18T08:17:15.365Z,66.53
2023-05-18T08:19:21.442Z,66.67
2023-05-18T08:21:29.080Z,66.55
2023-05-18T08:23:33.658Z,66.15
2023-05-18T08:25:38.367Z,66.13
2023-05-18T08:27:43.848Z,66.23
2023-05-18T08:29:47.723Z,65.24
2023-05-18T08:31:53.616Z,65.28
2023-05-18T08:33:59.185Z,65.10
2023-05-18T08:36:05.613Z,64.60
2023-05-18T08:38:12.296Z,63.74
2023-05-18T08:40:16.886Z,63.32
2023-05-18T08:42:27.728Z,62.77
2023-05-18T08:44:42.275Z,61.97
2023-05-18T08:46:53.731Z,61.62
2023-05-18T08:49:00.804Z,61.40
2023-05-18T08:51:10.416Z,60.66
2023-05-18T08:53:15.683Z,59.80
2023-05-18T08:55:21.771Z,59.90
2023-05-18T08:57:26.847Z,59.14
2023-05-18T08:59:35.262Z,58.47
2023-05-18T09:01:41.104Z,56.88
2023-05-18T09:03:46.550Z,56.95
2023-05-18T09:05:52.434Z,56.97
2023-05-18T09:07:59.308Z,56.97
2023-05-18T09:10:07.217Z,56.71
2023-05-18T09:12:15.411Z,56.71
2023-05-18T09:14:19.740Z,56.93
2023-05-18T09:16:24.908Z,56.51
2023-05-18T09:18:29.905Z,56.70
2023-05-18T09:20:35.218Z,56.78
2023-05-18T09:22:40.873Z,56.36
2023-05-18T09:24:48.736Z,56.43
2023-05-18T09:26:54.637Z,56.15
2023-05-18T09:29:01.879Z,55.81
2023-05-18T09:31:09.754Z,55.43
2023-05-18T09:33:19.637Z,55.40
2023-05-18T09:35:27.310Z,54.71
2023-05-18T09:37:31.965Z,54.91
2023-05-18T09:39:36.259Z,54.50
2023-05-18T09:41:43.956Z,54.25
2023-05-18T09:43:51.012Z,54.10
2023-05-18T09:45:55.872Z,53.29
2023-05-18T09:48:00.585Z,53.37
2023-05-18T09:50:06.005Z,52.05
2023-05-18T09:52:12.464Z,53.21
2023-05-18T09:54:21.048Z,52.87
2023-05-18T09:56:29.302Z,52.97
2023-05-18T09:58:37.962Z,53.65
2023-05-18T10:00:45.492Z,53.93
2023-05-18T10:02:53.283Z,54.52
2023-05-18T10:04:58.176Z,54.68
2023-05-18T10:07:03.821Z,54.95
2023-05-18T10:09:17.832Z,55.56
2023-05-18T10:11:26.386Z,54.38
2023-05-18T10:13:33.427Z,52.96
2023-05-18T10:15:39.728Z,52.89
2023-05-18T10:17:45.352Z,52.89
2023-05-18T10:19:56.287Z,53.28
2023-05-18T10:22:01.870Z,53.90
2023-05-18T10:24:10.844Z,54.08
2023-05-18T10:26:23.464Z,54.45
2023-05-18T10:28:58.950Z,54.13
2023-05-18T10:31:12.403Z,53.39
2023-05-18T10:33:55.321Z,53.28
2023-05-18T10:36:20.155Z,52.80
2023-05-18T10:38:27.399Z,52.00
2023-05-18T10:40:41.100Z,51.81
2023-05-18T10:42:48.265Z,52.40
2023-05-18T10:44:55.679Z,52.56
2023-05-18T10:47:04.434Z,52.35
2023-05-18T10:49:20.050Z,52.66
2023-05-18T10:51:26.355Z,52.37
2023-05-18T10:53:33.060Z,51.81
2023-05-18T10:55:37.977Z,50.53
2023-05-18T10:57:47.138Z,50.08
2023-05-18T10:59:51.421Z,49.89
2023-05-18T11:04:47.328Z,49.62
2023-05-18T11:07:27.322Z,49.38
2023-05-18T11:09:39.746Z,49.48
2023-05-18T11:12:03.059Z,48.94
2023-05-18T11:14:09.149Z,48.70
2023-05-18T11:16:17.644Z,49.15
2023-05-18T11:18:22.416Z,49.33
2023-05-18T11:20:35.804Z,48.83
2023-05-18T11:22:45.430Z,48.93
2023-05-18T11:24:50.194Z,48.87
2023-05-18T11:26:57.184Z,49.27
2023-05-18T11:29:01.766Z,49.24
2023-05-18T11:31:06.804Z,49.17
2023-05-18T11:33:12.598Z,49.05
2023-05-18T11:35:25.492Z,49.22
2023-05-18T11:37:53.112Z,49.19
2023-05-18T11:40:00.973Z,48.32
2023-05-18T11:42:10.271Z,48.32
2023-05-18T11:44:26.174Z,48.77
2023-05-18T11:46:31.052Z,48.49
2023-05-18T11:48:35.346Z,48.01
2023-05-18T11:50:48.123Z,47.64
2023-05-18T11:52:55.104Z,47.48
2023-05-18T11:55:00.925Z,47.61
2023-05-18T11:57:08.717Z,47.19
2023-05-18T11:59:16.994Z,47.87
2023-05-18T12:01:24.199Z,48.10
2023-05-18T12:03:30.106Z,48.08
2023-05-18T12:05:36.463Z,49.13
2023-05-18T12:07:42.736Z,49.12
2023-05-18T12:09:49.788Z,48.95
2023-05-18T12:11:54.708Z,49.00
2023-05-18T12:14:01.675Z,48.68
2023-05-18T12:16:06.879Z,48.00
2023-05-18T12:18:12.949Z,47.91
2023-05-18T12:20:20.659Z,47.99
2023-05-18T12:22:28.578Z,47.65
2023-05-18T12:24:34.131Z,47.71
2023-05-18T12:26:43.342Z,47.78
2023-05-18T12:28:48.701Z,47.86
2023-05-18T12:30:59.905Z,48.00
2023-05-18T12:33:08.108Z,48.15
2023-05-18T12:35:13.379Z,47.90
2023-05-18T12:37:18.456Z,47.63
2023-05-18T12:39:23.038Z,47.81
2023-05-18T12:41:30.064Z,47.34
2023-05-18T12:43:37.706Z,47.64
2023-05-18T12:45:42.250Z,47.46
2023-05-18T12:47:46.246Z,47.37
2023-05-18T12:49:51.777Z,47.69
2023-05-18T12:51:57.066Z,48.13
2023-05-18T12:54:02.573Z,48.03
2023-05-18T12:56:10.402Z,47.71
2023-05-18T12:58:16.585Z,47.67
2023-05-18T13:00:24.638Z,47.88
2023-05-18T13:02:31.853Z,48.11
2023-05-18T13:04:37.481Z,48.36
2023-05-18T13:06:42.013Z,48.06
2023-05-18T13:08:46.430Z,48.15
2023-05-18T13:11:01.224Z,48.38
2023-05-18T13:13:05.723Z,48.73
2023-05-18T13:15:15.110Z,48.44
2023-05-18T13:17:25.019Z,48.95
2023-05-18T13:19:29.036Z,48.70
2023-05-18T13:21:34.819Z,48.54
2023-05-18T13:23:39.490Z,48.42
2023-05-18T13:25:44.353Z,48.33
2023-05-18T13:27:49.827Z,48.18
2023-05-18T13:29:53.934Z,48.45
2023-05-18T13:31:58.276Z,48.49
2023-05-18T13:34:04.821Z,48.53
2023-05-18T13:36:09.309Z,48.50
2023-05-18T13:38:15.112Z,47.91
2023-05-18T13:40:20.283Z,48.55
2023-05-18T13:42:24.832Z,48.48
2023-05-18T13:44:29.190Z,48.64
2023-05-18T13:46:39.309Z,49.04
2023-05-18T13:48:46.712Z,49.17
2023-05-18T13:50:52.764Z,49.18
2023-05-18T13:52:57.649Z,48.78
2023-05-18T13:55:02.261Z,49.04
2023-05-18T13:57:08.529Z,48.92
2023-05-18T13:59:12.526Z,49.22
2023-05-18T14:01:19.164Z,48.98
2023-05-18T14:03:24.578Z,49.00
2023-05-18T14:05:28.751Z,49.71
2023-05-18T14:07:34.733Z,49.34
2023-05-18T14:09:39.442Z,49.58
2023-05-18T14:11:44.464Z,48.99
2023-05-18T14:13:48.750Z,48.96
2023-05-18T14:15:53.565Z,49.09
2023-05-18T14:17:57.767Z,48.97
2023-05-18T14:20:03.329Z,48.79
2023-05-18T14:22:08.943Z,48.57
2023-05-18T14:24:15.728Z,48.95
2023-05-18T14:26:20.350Z,48.63
2023-05-18T14:28:25.544Z,48.92
2023-05-18T14:30:30.012Z,48.36
2023-05-18T14:32:34.768Z,48.70
2023-05-18T14:34:39.835Z,48.80
2023-05-18T14:36:44.486Z,49.20
2023-05-18T14:38:49.198Z,49.25
2023-05-18T14:40:55.008Z,49.23
2023-05-18T14:43:00.298Z,48.85
2023-05-18T14:45:05.129Z,49.29
2023-05-18T14:47:10.916Z,49.17
2023-05-18T14:49:17.980Z,48.67
2023-05-18T14:51:24.185Z,49.01
2023-05-18T14:53:27.864Z,49.15
2023-05-18T14:55:32.224Z,49.05
2023-05-18T14:57:38.224Z,48.92
2023-05-18T14:59:43.743Z,48.99
2023-05-18T15:01:49.128Z,48.95
2023-05-18T15:03:54.630Z,49.52
2023-05-18T15:06:00.589Z,49.29
2023-05-18T15:08:05.952Z,49.34
2023-05-18T15:10:17.597Z,49.02
2023-05-18T15:12:23.441Z,49.06
2023-05-18T15:14:29.245Z,48.91
2023-05-18T15:16:33.513Z,49.10
2023-05-18T15:18:38.908Z,49.02
2023-05-18T15:20:45.499Z,48.74
2023-05-18T15:22:51.493Z,48.87
2023-05-18T15:24:56.659Z,49.46
2023-05-18T15:27:04.172Z,49.53
2023-05-18T15:29:10.188Z,49.58
2023-05-18T15:31:18.644Z,50.26
2023-05-18T15:33:28.115Z,50.19
2023-05-18T15:35:40.835Z,50.31
2023-05-18T15:37:48.758Z,50.57
2023-05-18T15:39:53.791Z,50.58
2023-05-18T15:41:58.249Z,50.73
2023-05-18T15:44:02.659Z,50.90
2023-05-18T15:46:07.075Z,50.63
2023-05-18T15:48:13.101Z,50.45
2023-05-18T15:50:18.145Z,50.71
2023-05-18T15:52:23.328Z,50.92
2023-05-18T15:54:27.937Z,50.88
2023-05-18T15:56:33.247Z,50.77
2023-05-18T15:58:38.425Z,51.13
2023-05-18T16:00:44.667Z,51.47
2023-05-18T16:02:49.811Z,51.31
2023-05-18T16:04:56.693Z,51.74
2023-05-18T16:07:03.034Z,51.64
2023-05-18T16:09:07.993Z,51.86
2023-05-18T16:11:13.023Z,51.85
2023-05-18T16:13:17.644Z,52.23
2023-05-18T16:15:24.651Z,52.53
2023-05-18T16:17:30.663Z,52.47
2023-05-18T16:19:35.986Z,52.35
2023-05-18T16:21:43.092Z,52.75
2023-05-18T16:23:49.974Z,53.07
2023-05-18T16:25:55.099Z,52.96
2023-05-18T16:27:59.326Z,53.27
2023-05-18T16:30:03.616Z,53.16
2023-05-18T16:32:09.163Z,52.96
2023-05-18T16:34:13.386Z,52.93
2023-05-18T16:36:17.356Z,53.25
2023-05-18T16:38:23.016Z,53.44
2023-05-18T16:40:27.153Z,53.38
2023-05-18T16:42:31.736Z,53.45
2023-05-18T16:44:37.367Z,53.61
2023-05-18T16:46:41.410Z,53.47
2023-05-18T16:48:46.120Z,53.41
2023-05-18T16:50:50.583Z,53.96
2023-05-18T16:52:54.806Z,53.68
2023-05-18T16:55:00.986Z,53.91
2023-05-18T16:57:05.767Z,54.09
2023-05-18T16:59:10.058Z,54.16
2023-05-18T17:01:26.533Z,54.30
2023-05-18T17:03:34.473Z,54.11
2023-05-18T17:05:39.587Z,54.14
2023-05-18T17:07:44.329Z,54.35
2023-05-18T17:09:49.065Z,54.46
2023-05-18T17:11:55.376Z,54.75
2023-05-18T17:14:00.346Z,55.22
2023-05-18T17:16:06.957Z,55.40
2023-05-18T17:18:11.621Z,55.72
2023-05-18T17:20:16.036Z,55.63
2023-05-18T17:22:21.011Z,55.89
2023-05-18T17:24:25.632Z,55.66
2023-05-18T17:26:33.633Z,56.13
2023-05-18T17:28:39.864Z,55.75
2023-05-18T17:30:45.375Z,55.75
2023-05-18T17:32:51.393Z,56.03
2023-05-18T17:34:56.233Z,55.45
2023-05-18T17:37:00.672Z,55.08
2023-05-18T17:39:05.841Z,55.30
2023-05-18T17:41:10.350Z,55.21
2023-05-18T17:43:15.725Z,55.36
2023-05-18T17:45:23.048Z,55.45
2023-05-18T17:47:29.315Z,55.83
2023-05-18T17:49:36.919Z,55.84
2023-05-18T17:51:42.783Z,56.50
2023-05-18T17:53:50.820Z,56.17
2023-05-18T17:55:55.367Z,56.34
2023-05-18T17:58:02.926Z,56.93
2023-05-18T18:00:09.319Z,57.19
2023-05-18T18:02:17.008Z,57.47
2023-05-18T18:04:23.362Z,57.56
2023-05-18T18:06:29.054Z,57.01
2023-05-18T18:08:34.266Z,57.46
2023-05-18T18:10:39.603Z,57.13
2023-05-18T18:12:44.238Z,57.75
2023-05-18T18:14:48.823Z,58.04
2023-05-18T18:16:54.125Z,58.05
2023-05-18T18:19:00.134Z,57.79
2023-05-18T18:21:04.802Z,58.07
2023-05-18T18:23:09.189Z,58.31
2023-05-18T18:25:13.499Z,58.53
2023-05-18T18:27:19.782Z,58.50
2023-05-18T18:29:24.215Z,58.60
2023-05-18T18:31:29.001Z,58.50
2023-05-18T18:33:35.199Z,58.89
2023-05-18T18:35:43.176Z,58.74
2023-05-18T18:37:48.175Z,59.25
2023-05-18T18:39:53.543Z,59.17
2023-05-18T18:41:57.526Z,59.40
2023-05-18T18:44:03.564Z,59.48
2023-05-18T18:46:08.756Z,60.01
2023-05-18T18:48:13.744Z,59.85
2023-05-18T18:50:18.196Z,60.41
2023-05-18T18:52:23.574Z,60.26
2023-05-18T18:54:29.024Z,60.69
2023-05-18T18:56:37.411Z,60.83
2023-05-18T18:58:41.929Z,61.44
2023-05-18T19:00:46.450Z,61.84
2023-05-18T19:02:51.657Z,62.02
2023-05-18T19:04:55.925Z,62.40
2023-05-18T19:07:02.051Z,62.94
2023-05-18T19:09:07.645Z,63.57
2023-05-18T19:11:12.148Z,63.87
2023-05-18T19:13:16.440Z,63.96
2023-05-18T19:15:21.722Z,64.07
2023-05-18T19:17:26.929Z,64.58
2023-05-18T19:19:32.876Z,65.13
2023-05-18T19:21:37.773Z,65.27
2023-05-18T19:23:42.698Z,65.92
2023-05-18T19:25:49.780Z,65.93
2023-05-18T19:27:54.606Z,66.04
2023-05-18T19:30:02.969Z,66.05
2023-05-18T19:32:08.332Z,66.17
2023-05-18T19:34:12.154Z,66.78
2023-05-18T19:36:17.011Z,66.68
2023-05-18T19:38:21.625Z,67.29
2023-05-18T19:40:27.713Z,67.58
2023-05-18T19:42:33.209Z,67.40
2023-05-18T19:44:37.607Z,67.50
2023-05-18T19:46:42.264Z,67.88
2023-05-18T19:48:49.673Z,67.82
2023-05-18T19:50:53.871Z,68.17
2023-05-18T19:52:58.083Z,68.42
2023-05-18T19:55:02.684Z,68.58
2023-05-18T19:57:07.722Z,69.11
2023-05-18T19:59:14.056Z,68.96
2023-05-18T20:01:19.122Z,68.76
2023-05-18T20:03:23.382Z,68.82
2023-05-18T20:05:28.050Z,68.98
2023-05-18T20:07:35.245Z,69.11
2023-05-18T20:09:41.894Z,69.32
2023-05-18T20:11:47.089Z,69.32
2023-05-18T20:13:51.988Z,69.70
2023-05-18T20:15:57.410Z,69.70
2023-05-18T20:18:05.188Z,70.34
2023-05-18T20:20:14.961Z,70.78
2023-05-18T20:22:19.357Z,71.98
2023-05-18T20:24:26.270Z,73.41
2023-05-18T20:26:31.993Z,74.17
2023-05-18T20:28:40.154Z,75.04
2023-05-18T20:30:48.164Z,75.84
2023-05-18T20:32:54.772Z,76.55
2023-05-18T20:35:00.597Z,77.56
2023-05-18T20:37:05.933Z,78.00
2023-05-18T20:39:10.228Z,78.70
2023-05-18T20:41:17.987Z,80.18
2023-05-18T20:43:22.203Z,80.05
2023-05-18T20:45:27.307Z,79.72
2023-05-18T20:47:38.474Z,80.35
2023-05-18T20:49:52.982Z,80.58
2023-05-18T20:51:57.843Z,81.39
2023-05-18T20:54:02.079Z,83.26
2023-05-18T20:56:07.576Z,81.75
2023-05-18T20:58:12.087Z,82.51
2023-05-18T21:00:17.782Z,82.94
2023-05-18T21:02:22.742Z,83.67
2023-05-18T21:04:28.530Z,84.38
2023-05-18T21:06:34.596Z,84.89
2023-05-18T21:08:38.559Z,84.95
2023-05-18T21:10:42.435Z,85.38
2023-05-18T21:12:47.448Z,85.38
2023-05-18T21:14:51.181Z,85.54
2023-05-18T21:16:55.696Z,86.46
2023-05-18T21:18:59.978Z,86.87
2023-05-18T21:21:06.259Z,87.02
2023-05-18T21:23:11.922Z,87.69
2023-05-18T21:25:18.115Z,87.57
2023-05-18T21:27:22.577Z,87.96
2023-05-18T21:29:28.621Z,88.69
2023-05-18T21:31:32.758Z,89.45
2023-05-18T21:33:36.924Z,90.22
2023-05-18T21:35:40.991Z,89.29
2023-05-18T21:37:44.865Z,90.04
2023-05-18T21:39:50.236Z,90.47
2023-05-18T21:41:54.164Z,90.24
2023-05-18T21:43:58.323Z,90.48
2023-05-18T21:46:02.818Z,90.78
2023-05-18T21:48:07.638Z,90.96
2023-05-18T21:50:12.475Z,90.97
2023-05-18T21:52:16.627Z,91.37
2023-05-18T21:54:20.889Z,91.64
2023-05-18T21:56:26.525Z,91.68
2023-05-18T21:58:30.383Z,91.44
2023-05-18T22:00:35.628Z,92.18
2023-05-18T22:02:39.598Z,92.65
2023-05-18T22:04:43.569Z,92.23
2023-05-18T22:06:47.723Z,92.26
2023-05-18T22:08:53.205Z,92.29
2023-05-18T22:10:57.242Z,92.52
2023-05-18T22:13:02.801Z,92.58
2023-05-18T22:15:07.582Z,92.53
2023-05-18T22:17:11.226Z,92.73
2023-05-18T22:19:15.241Z,91.96
2023-05-18T22:21:18.767Z,92.36
2023-05-18T22:23:23.000Z,92.64
2023-05-18T22:25:26.960Z,92.68
2023-05-18T22:27:31.101Z,92.75
2023-05-18T22:29:36.402Z,93.05
2023-05-18T22:31:40.105Z,93.06
2023-05-18T22:33:43.765Z,92.65
2023-05-18T22:35:48.376Z,92.34
2023-05-18T22:37:52.065Z,92.39
2023-05-18T22:39:55.769Z,92.63
2023-05-18T22:41:59.519Z,92.82
2023-05-18T22:44:03.168Z,92.66
2023-05-18T22:46:08.612Z,92.98
2023-05-18T22:48:12.443Z,93.20
2023-05-18T22:50:16.186Z,92.97
2023-05-18T22:52:19.903Z,93.16
2023-05-18T22:54:23.679Z,93.26
2023-05-18T22:56:27.776Z,93.54
2023-05-18T22:58:31.589Z,93.57
2023-05-18T23:00:35.251Z,94.00
2023-05-18T23:02:40.912Z,94.30
2023-05-18T23:04:44.572Z,94.22
2023-05-18T23:06:50.987Z,94.40
2023-05-18T23:08:55.451Z,94.72
2023-05-18T23:10:59.361Z,94.88
2023-05-18T23:13:03.451Z,95.06
2023-05-18T23:15:08.564Z,94.69
2023-05-18T23:17:12.564Z,95.73
2023-05-18T23:19:18.650Z,95.40
2023-05-18T23:21:22.974Z,95.39
2023-05-18T23:23:27.233Z,95.32
2023-05-18T23:25:31.119Z,95.45
2023-05-18T23:28:29.060Z,95.61
2023-05-18T23:30:51.448Z,95.29
2023-05-18T23:32:56.735Z,95.31
2023-05-18T23:35:04.572Z,95.48
2023-05-18T23:37:10.761Z,95.48
2023-05-18T23:39:15.224Z,95.40
2023-05-18T23:41:19.536Z,95.73
2023-05-18T23:43:23.720Z,95.96
2023-05-18T23:45:27.986Z,96.38
2023-05-18T23:47:32.189Z,96.35
2023-05-18T23:49:37.029Z,95.88
2023-05-18T23:51:43.950Z,96.00
2023-05-18T23:53:48.091Z,96.46
2023-05-18T23:55:52.250Z,95.38
2023-05-18T23:57:57.591Z,95.34
